Time;durP1;ratioP1;P1;durP2;ratioP2;P2;SDS_P1;SDS_P2;PMS_P1;PMS_P2;Temp;Humidity;BMP_temperature;BMP_pressure;BME280_temperature;BME280_humidity;BME280_pressure;Samples;Min_cycle;Max_cycle;Signal;HPM_P1;HPM_P2
2021/03/23 00:01:46;;;;;;;33.65;13.68;;;8.00;76.90;;;;;;5051623;28;20136;-87
2021/03/23 00:04:14;;;;;;;32.90;14.40;;;7.90;76.70;;;;;;5052330;28;20067;-85
2021/03/23 00:06:41;;;;;;;35.50;14.70;;;7.90;77.40;;;;;;5045788;28;20050;-85
2021/03/23 00:09:08;;;;;;;31.52;13.15;;;7.90;77.50;;;;;;5049733;28;20052;-82
2021/03/23 00:11:40;;;;;;;28.80;13.20;;;8.00;77.60;;;;;;5047704;28;20044;-83
2021/03/23 00:14:10;;;;;;;30.20;13.52;;;8.00;77.60;;;;;;5049372;28;20052;-79
2021/03/23 00:16:40;;;;;;;28.33;14.32;;;7.90;77.30;;;;;;5045989;28;20049;-82
2021/03/23 00:19:09;;;;;;;31.85;13.50;;;7.90;78.00;;;;;;5048163;28;20068;-85
2021/03/23 00:21:36;;;;;;;31.45;14.90;;;7.90;78.10;;;;;;5048603;28;20048;-81
2021/03/23 00:24:04;;;;;;;31.75;14.88;;;7.80;77.90;;;;;;5049294;28;20052;-81
2021/03/23 00:26:31;;;;;;;31.92;13.95;;;7.80;78.10;;;;;;5045702;28;20042;-81
2021/03/23 00:28:58;;;;;;;30.98;14.65;;;7.80;78.00;;;;;;5048798;28;20049;-80
2021/03/23 00:31:28;;;;;;;34.70;15.13;;;7.90;77.80;;;;;;5043333;28;20103;-81
2021/03/23 00:33:58;;;;;;;32.15;15.13;;;7.90;78.10;;;;;;5047809;28;20061;-82
2021/03/23 00:36:29;;;;;;;34.30;15.07;;;7.80;77.80;;;;;;5049004;28;20143;-81
2021/03/23 00:39:01;;;;;;;39.20;15.00;;;7.80;77.80;;;;;;5046722;28;20076;-81
2021/03/23 00:41:34;;;;;;;32.20;15.13;;;7.90;78.30;;;;;;5075421;28;20102;-82
2021/03/23 00:44:04;;;;;;;38.08;14.73;;;7.90;78.00;;;;;;5048017;28;20143;-82
2021/03/23 00:46:32;;;;;;;35.45;15.05;;;7.90;77.90;;;;;;5046942;28;20163;-81
2021/03/23 00:49:02;;;;;;;33.08;15.48;;;7.90;77.90;;;;;;5051391;28;20049;-82
2021/03/23 00:51:28;;;;;;;33.75;15.55;;;7.90;78.10;;;;;;5046481;28;20516;-81
2021/03/23 00:53:55;;;;;;;32.88;14.00;;;8.00;77.70;;;;;;5041602;28;20053;-81
2021/03/23 00:56:22;;;;;;;32.25;14.80;;;8.00;77.50;;;;;;5046566;28;20331;-81
2021/03/23 00:58:48;;;;;;;36.13;15.65;;;7.90;77.90;;;;;;5055457;28;20045;-81
2021/03/23 01:01:14;;;;;;;42.00;15.77;;;7.90;77.50;;;;;;5046033;28;20460;-82
2021/03/23 01:03:41;;;;;;;33.30;14.63;;;7.90;78.00;;;;;;5046513;28;20148;-82
2021/03/23 01:06:08;;;;;;;37.53;14.75;;;8.00;77.50;;;;;;5048810;28;20075;-82
2021/03/23 01:08:35;;;;;;;33.45;14.80;;;8.00;77.60;;;;;;5051345;28;20044;-82
2021/03/23 01:11:05;;;;;;;33.58;14.77;;;8.00;78.50;;;;;;5043267;28;20172;-81
2021/03/23 01:13:31;;;;;;;36.50;14.75;;;8.00;77.50;;;;;;5052312;28;20274;-81
2021/03/23 01:15:59;;;;;;;34.50;15.65;;;8.00;77.60;;;;;;5078082;28;20049;-81
2021/03/23 01:18:26;;;;;;;33.55;14.57;;;8.00;77.60;;;;;;5051043;28;20385;-82
2021/03/23 01:20:52;;;;;;;33.67;14.68;;;8.00;77.30;;;;;;5044956;28;20064;-81
2021/03/23 01:23:19;;;;;;;35.47;15.38;;;8.00;77.60;;;;;;5041440;28;20045;-81
2021/03/23 01:25:45;;;;;;;36.85;15.88;;;7.90;77.50;;;;;;5047738;28;20146;-81
2021/03/23 01:28:12;;;;;;;38.30;15.43;;;8.00;77.80;;;;;;5047930;28;20052;-81
2021/03/23 01:30:38;;;;;;;36.40;16.52;;;8.00;77.10;;;;;;5042289;28;20456;-82
2021/03/23 01:33:05;;;;;;;35.67;15.90;;;7.90;77.60;;;;;;5044297;28;20049;-80
2021/03/23 01:35:31;;;;;;;32.67;14.98;;;7.90;77.90;;;;;;5045639;28;20048;-81
2021/03/23 01:37:58;;;;;;;37.80;15.07;;;7.90;77.90;;;;;;5045156;28;20049;-81
2021/03/23 01:40:27;;;;;;;33.78;14.70;;;7.90;77.80;;;;;;5026980;28;20199;-82
2021/03/23 01:42:59;;;;;;;40.15;15.82;;;7.80;78.20;;;;;;5046428;28;20048;-81
2021/03/23 01:45:39;;;;;;;40.13;16.55;;;7.80;78.20;;;;;;5048754;28;20076;-81
2021/03/23 01:48:15;;;;;;;34.03;14.75;;;7.90;77.70;;;;;;5047404;28;20095;-81
2021/03/23 01:50:44;;;;;;;38.92;15.75;;;7.90;77.80;;;;;;5040265;28;20124;-82
2021/03/23 01:53:18;;;;;;;35.15;15.02;;;8.00;77.50;;;;;;5044666;28;20095;-81
2021/03/23 01:55:46;;;;;;;33.60;14.60;;;8.00;77.70;;;;;;5043156;28;20495;-81
2021/03/23 01:58:15;;;;;;;32.33;14.32;;;8.00;77.60;;;;;;5049079;28;20049;-81
2021/03/23 02:00:45;;;;;;;36.83;14.93;;;7.90;77.60;;;;;;5045829;28;20432;-81
2021/03/23 02:03:12;;;;;;;32.13;13.68;;;7.90;77.90;;;;;;5049155;28;20468;-81
2021/03/23 02:05:39;;;;;;;32.15;15.23;;;7.90;78.10;;;;;;5049165;28;20041;-81
2021/03/23 02:08:07;;;;;;;35.45;15.68;;;7.90;77.50;;;;;;5040587;28;20064;-82
2021/03/23 02:10:34;;;;;;;31.23;15.20;;;7.90;77.60;;;;;;5044610;28;20049;-81
2021/03/23 02:13:04;;;;;;;36.90;15.45;;;7.90;78.00;;;;;;5049341;28;20058;-80
2021/03/23 02:15:31;;;;;;;35.38;14.93;;;8.10;77.50;;;;;;5043179;28;20057;-80
2021/03/23 02:18:13;;;;;;;37.05;14.02;;;8.00;77.50;;;;;;5044957;28;20049;-81
2021/03/23 02:21:11;;;;;;;38.20;14.98;;;8.10;77.20;;;;;;5044573;28;20052;-81
2021/03/23 02:23:45;;;;;;;35.70;15.80;;;7.90;77.90;;;;;;5050047;28;20456;-80
2021/03/23 02:26:26;;;;;;;30.88;14.50;;;7.80;78.80;;;;;;5041765;28;20050;-81
2021/03/23 02:28:52;;;;;;;33.72;14.52;;;7.80;78.40;;;;;;5047328;28;20102;-80
2021/03/23 02:31:22;;;;;;;31.80;13.60;;;7.80;78.80;;;;;;5048571;28;20045;-80
2021/03/23 02:33:49;;;;;;;30.45;14.68;;;7.70;78.70;;;;;;5052909;28;20041;-80
2021/03/23 02:36:16;;;;;;;34.88;15.15;;;7.70;78.50;;;;;;5049925;28;20191;-80
2021/03/23 02:38:44;;;;;;;37.10;14.52;;;7.70;78.60;;;;;;5050412;28;20056;-81
2021/03/23 02:41:10;;;;;;;31.40;13.57;;;7.60;78.60;;;;;;5042687;28;20072;-81
2021/03/23 02:43:37;;;;;;;31.95;14.20;;;7.70;78.60;;;;;;5042532;28;20045;-81
2021/03/23 02:46:04;;;;;;;42.28;14.63;;;7.70;79.10;;;;;;5046781;28;20468;-80
2021/03/23 02:48:31;;;;;;;31.90;14.07;;;7.70;78.90;;;;;;5071438;28;20044;-81
2021/03/23 02:50:58;;;;;;;35.72;14.13;;;7.70;78.40;;;;;;5050458;28;20052;-81
2021/03/23 02:53:24;;;;;;;32.03;13.70;;;7.70;78.80;;;;;;5044838;28;20096;-81
2021/03/23 02:55:51;;;;;;;34.63;14.68;;;7.80;78.20;;;;;;5044633;28;20056;-81
2021/03/23 02:58:17;;;;;;;31.67;13.73;;;7.70;78.60;;;;;;5042183;28;20049;-81
2021/03/23 03:00:44;;;;;;;31.77;13.75;;;7.60;78.90;;;;;;5047241;28;20045;-80
2021/03/23 03:03:11;;;;;;;29.02;13.98;;;7.60;79.20;;;;;;5050697;28;20072;-80
2021/03/23 03:05:52;;;;;;;38.10;15.57;;;7.60;79.50;;;;;;5042434;28;20045;-80
2021/03/23 03:08:20;;;;;;;32.53;13.10;;;7.60;79.30;;;;;;5042108;28;20048;-80
2021/03/23 03:10:46;;;;;;;31.23;14.38;;;7.60;79.40;;;;;;5040727;28;20443;-80
2021/03/23 03:13:13;;;;;;;30.63;13.65;;;7.60;79.20;;;;;;5046974;28;20053;-81
2021/03/23 03:15:42;;;;;;;36.05;13.88;;;7.70;79.20;;;;;;5045712;28;20054;-81
2021/03/23 03:18:09;;;;;;;34.08;13.35;;;7.70;78.90;;;;;;5050616;28;20395;-81
2021/03/23 03:20:35;;;;;;;32.22;13.68;;;7.70;78.80;;;;;;5047685;28;20102;-81
2021/03/23 03:23:02;;;;;;;38.78;14.60;;;7.70;78.40;;;;;;5049633;28;20041;-81
2021/03/23 03:25:28;;;;;;;39.35;14.52;;;7.70;78.50;;;;;;5045062;28;20056;-81
2021/03/23 03:27:54;;;;;;;35.20;13.60;;;7.70;78.40;;;;;;5041263;28;20052;-81
2021/03/23 03:30:26;;;;;;;35.10;14.45;;;7.70;78.60;;;;;;5039528;28;20056;-80
2021/03/23 03:32:53;;;;;;;34.30;13.63;;;7.80;79.10;;;;;;5045242;28;20052;-80
2021/03/23 03:35:26;;;;;;;34.95;14.23;;;7.80;78.70;;;;;;5046299;28;20120;-81
2021/03/23 03:37:52;;;;;;;38.75;14.38;;;7.80;78.50;;;;;;5044420;28;20392;-83
2021/03/23 03:40:22;;;;;;;36.03;13.68;;;7.80;78.40;;;;;;5041941;28;20041;-83
2021/03/23 03:42:50;;;;;;;33.47;13.65;;;7.80;78.40;;;;;;5048941;28;20473;-81
2021/03/23 03:45:17;;;;;;;34.65;14.18;;;7.80;78.50;;;;;;5047787;28;20056;-83
2021/03/23 03:47:43;;;;;;;34.35;14.02;;;7.90;78.20;;;;;;5040660;28;20425;-84
2021/03/23 03:50:12;;;;;;;37.58;14.25;;;7.90;78.40;;;;;;5052264;28;20091;-82
2021/03/23 03:52:38;;;;;;;35.08;14.40;;;7.80;78.10;;;;;;5044270;28;20096;-81
2021/03/23 03:55:05;;;;;;;34.28;14.23;;;7.80;77.50;;;;;;5046843;28;20091;-81
2021/03/23 03:57:32;;;;;;;34.22;13.93;;;7.80;77.80;;;;;;5043295;28;20514;-81
2021/03/23 03:59:58;;;;;;;31.88;13.60;;;7.90;77.60;;;;;;5042662;28;20183;-82
2021/03/23 04:02:24;;;;;;;34.35;14.55;;;7.90;77.30;;;;;;5039422;28;20046;-81
2021/03/23 04:04:51;;;;;;;33.47;13.82;;;7.90;77.20;;;;;;5074397;28;20048;-81
2021/03/23 04:07:17;;;;;;;34.00;13.50;;;7.90;77.50;;;;;;5050052;28;20076;-81
2021/03/23 04:09:44;;;;;;;34.45;13.93;;;7.80;77.60;;;;;;5048057;28;20077;-82
2021/03/23 04:12:10;;;;;;;35.10;13.95;;;7.80;77.30;;;;;;5039611;28;20041;-81
2021/03/23 04:14:37;;;;;;;29.38;13.73;;;7.80;77.50;;;;;;5037442;28;20103;-82
2021/03/23 04:17:04;;;;;;;29.70;12.68;;;7.70;77.10;;;;;;5044788;28;20059;-81
2021/03/23 04:19:30;;;;;;;37.75;13.52;;;7.80;77.10;;;;;;5039819;28;20160;-81
2021/03/23 04:21:57;;;;;;;38.45;14.23;;;7.80;77.30;;;;;;5049478;28;20094;-81
2021/03/23 04:24:24;;;;;;;38.17;14.70;;;7.80;77.00;;;;;;5047770;28;20045;-82
2021/03/23 04:26:50;;;;;;;32.08;13.02;;;7.90;77.10;;;;;;5043865;28;20045;-83
2021/03/23 04:29:17;;;;;;;28.55;13.13;;;7.90;77.00;;;;;;5045971;28;20049;-82
2021/03/23 04:31:44;;;;;;;34.30;14.15;;;7.80;77.00;;;;;;5040871;28;20045;-82
2021/03/23 04:34:15;;;;;;;33.33;14.13;;;7.80;77.50;;;;;;5048213;28;20131;-82
2021/03/23 04:36:59;;;;;;;34.00;13.25;;;7.80;77.00;;;;;;5047751;28;20048;-82
2021/03/23 04:39:25;;;;;;;31.33;13.80;;;7.70;76.50;;;;;;5049835;28;20122;-82
2021/03/23 04:41:51;;;;;;;36.25;13.40;;;7.80;76.80;;;;;;5042550;28;20053;-82
2021/03/23 04:44:18;;;;;;;36.75;13.25;;;7.80;76.40;;;;;;5040890;28;20057;-82
2021/03/23 04:46:44;;;;;;;36.10;13.23;;;7.80;76.20;;;;;;5045336;28;20050;-82
2021/03/23 04:49:11;;;;;;;35.80;13.57;;;7.80;76.10;;;;;;5044905;28;20060;-81
2021/03/23 04:51:37;;;;;;;30.00;12.45;;;7.80;76.70;;;;;;5079428;28;20391;-81
2021/03/23 04:54:08;;;;;;;34.17;12.68;;;7.90;76.40;;;;;;5047999;28;20053;-82
2021/03/23 04:56:38;;;;;;;30.90;12.40;;;7.90;76.10;;;;;;5042220;28;20056;-81
2021/03/23 04:59:05;;;;;;;36.95;13.50;;;7.90;76.20;;;;;;5053777;28;20049;-81
2021/03/23 05:01:34;;;;;;;30.33;13.38;;;7.90;76.20;;;;;;5050813;28;20049;-81
2021/03/23 05:04:05;;;;;;;35.83;12.82;;;7.90;76.00;;;;;;5058551;28;20053;-82
2021/03/23 05:06:32;;;;;;;30.25;12.45;;;7.80;76.60;;;;;;5049513;28;20049;-82
2021/03/23 05:08:58;;;;;;;31.20;12.45;;;7.90;76.20;;;;;;5048241;28;20045;-82
2021/03/23 05:11:29;;;;;;;32.17;12.40;;;7.90;76.00;;;;;;5045674;28;20404;-83
2021/03/23 05:13:56;;;;;;;32.28;12.68;;;7.90;76.00;;;;;;5051265;28;20136;-82
2021/03/23 05:16:23;;;;;;;29.20;12.10;;;7.90;75.50;;;;;;5051370;28;20064;-82
2021/03/23 05:18:50;;;;;;;30.63;13.05;;;7.90;75.70;;;;;;5053559;28;20103;-82
2021/03/23 05:21:18;;;;;;;30.30;11.45;;;7.90;76.10;;;;;;5045781;28;20045;-82
2021/03/23 05:23:45;;;;;;;27.10;12.02;;;7.90;74.90;;;;;;5045753;28;20053;-82
2021/03/23 05:26:11;;;;;;;31.50;12.18;;;7.90;74.80;;;;;;5033904;28;20053;-82
2021/03/23 05:28:38;;;;;;;30.77;12.40;;;7.90;74.50;;;;;;5047166;28;20048;-82
2021/03/23 05:31:06;;;;;;;32.45;11.50;;;7.90;74.70;;;;;;5037648;28;20091;-83
2021/03/23 05:33:33;;;;;;;28.98;12.00;;;7.80;74.80;;;;;;5049812;28;20057;-82
2021/03/23 05:36:00;;;;;;;32.30;11.50;;;7.90;74.70;;;;;;5052316;28;20075;-82
2021/03/23 05:38:27;;;;;;;30.92;11.85;;;7.90;73.70;;;;;;5052555;28;20130;-82
2021/03/23 05:41:05;;;;;;;34.03;11.48;;;7.80;74.50;;;;;;5050036;28;20071;-82
2021/03/23 05:43:33;;;;;;;25.30;10.80;;;7.90;74.40;;;;;;5043090;28;20102;-82
2021/03/23 05:46:02;;;;;;;26.75;11.63;;;7.80;74.40;;;;;;5046767;28;20046;-82
2021/03/23 05:48:33;;;;;;;32.42;11.25;;;7.90;73.70;;;;;;5054516;28;20421;-82
2021/03/23 05:51:02;;;;;;;25.30;11.15;;;7.90;73.90;;;;;;5039811;28;20061;-82
2021/03/23 05:53:58;;;;;;;24.38;10.30;;;7.90;73.60;;;;;;5050484;28;20408;-82
2021/03/23 05:56:28;;;;;;;26.83;11.45;;;7.90;73.50;;;;;;5049722;28;20076;-82
2021/03/23 05:59:02;;;;;;;24.55;10.50;;;7.90;73.40;;;;;;5046403;28;20099;-82
2021/03/23 06:01:53;;;;;;;29.83;11.60;;;7.90;74.10;;;;;;5040572;28;20485;-82
2021/03/23 06:04:25;;;;;;;26.27;10.77;;;8.00;73.60;;;;;;5039254;28;20128;-82
2021/03/23 06:07:02;;;;;;;24.05;10.00;;;8.00;73.70;;;;;;5048932;28;20045;-83
2021/03/23 06:09:39;;;;;;;24.67;11.18;;;8.00;73.40;;;;;;5052533;28;20114;-83
2021/03/23 06:12:23;;;;;;;26.35;11.00;;;8.00;73.20;;;;;;5046605;28;20049;-83
2021/03/23 06:15:00;;;;;;;24.00;10.38;;;8.10;73.30;;;;;;5047865;28;20111;-83
2021/03/23 06:18:03;;;;;;;29.02;11.32;;;8.00;73.00;;;;;;5046122;28;20415;-82
2021/03/23 06:20:33;;;;;;;29.05;10.52;;;7.90;73.50;;;;;;5048295;28;20053;-82
2021/03/23 06:23:34;;;;;;;29.02;10.82;;;7.90;73.50;;;;;;5045570;28;20111;-83
2021/03/23 06:26:23;;;;;;;25.00;11.02;;;7.80;73.60;;;;;;5050529;28;20468;-82
2021/03/23 06:29:05;;;;;;;26.58;10.43;;;8.00;74.20;;;;;;5045751;28;20510;-81
2021/03/23 06:32:19;;;;;;;25.83;11.45;;;8.00;73.00;;;;;;5046567;28;20096;-82
2021/03/23 06:34:56;;;;;;;27.33;11.32;;;8.00;72.60;;;;;;5047180;28;20056;-82
2021/03/23 06:37:30;;;;;;;28.33;11.13;;;8.00;72.30;;;;;;5042484;28;20511;-82
2021/03/23 06:39:57;;;;;;;25.30;10.65;;;8.10;71.90;;;;;;5040117;28;24395;-81
2021/03/23 06:42:38;;;;;;;30.73;11.82;;;8.10;72.20;;;;;;5049211;28;20094;-82
2021/03/23 06:45:19;;;;;;;26.13;10.88;;;8.20;72.90;;;;;;5043758;28;20045;-82
2021/03/23 06:47:45;;;;;;;26.67;9.85;;;8.20;71.20;;;;;;5040855;28;20049;-82
2021/03/23 06:50:32;;;;;;;29.98;11.10;;;8.20;71.00;;;;;;5046195;28;20080;-81
2021/03/23 06:53:07;;;;;;;31.25;11.75;;;8.20;71.00;;;;;;5039468;28;20093;-81
2021/03/23 06:55:35;;;;;;;30.45;12.02;;;8.30;71.90;;;;;;5045466;28;20056;-81
2021/03/23 06:58:02;;;;;;;26.83;10.98;;;8.30;72.50;;;;;;5047561;28;20080;-80
2021/03/23 07:00:35;;;;;;;26.27;11.45;;;8.30;71.70;;;;;;5046942;28;20072;-81
2021/03/23 07:03:29;;;;;;;29.00;11.55;;;8.20;71.50;;;;;;5077491;28;20053;-80
2021/03/23 07:05:55;;;;;;;29.27;11.63;;;8.20;71.40;;;;;;5039293;28;20057;-80
2021/03/23 07:08:26;;;;;;;25.33;11.02;;;8.30;71.00;;;;;;5045408;28;20095;-81
2021/03/23 07:10:53;;;;;;;31.13;11.88;;;8.20;70.80;;;;;;5044744;28;20052;-81
2021/03/23 07:13:25;;;;;;;25.73;11.15;;;8.20;71.30;;;;;;5045202;28;20073;-81
2021/03/23 07:16:09;;;;;;;26.27;11.52;;;8.30;71.20;;;;;;5043004;28;20140;-81
2021/03/23 07:18:50;;;;;;;29.95;11.90;;;8.30;71.80;;;;;;5045279;28;20045;-81
2021/03/23 07:21:29;;;;;;;29.48;10.52;;;8.40;71.30;;;;;;5039894;28;20111;-81
2021/03/23 07:24:03;;;;;;;32.88;12.48;;;8.40;71.70;;;;;;5055804;28;20053;-82
2021/03/23 07:26:35;;;;;;;21.80;10.48;;;8.50;71.50;;;;;;5043722;28;20044;-82
2021/03/23 07:29:11;;;;;;;24.08;10.52;;;8.50;70.70;;;;;;5046078;28;20480;-81
2021/03/23 07:31:52;;;;;;;28.92;10.93;;;8.50;70.80;;;;;;5046178;28;20060;-81
2021/03/23 07:34:22;;;;;;;25.95;11.45;;;8.50;71.00;;;;;;5047559;28;20044;-81
2021/03/23 07:36:55;;;;;;;30.70;12.30;;;8.30;71.70;;;;;;5043061;28;20255;-81
2021/03/23 07:39:35;;;;;;;29.67;12.07;;;8.30;71.40;;;;;;5047614;28;20061;-80
2021/03/23 07:42:05;;;;;;;32.83;12.65;;;8.30;71.90;;;;;;5038483;28;20048;-82
2021/03/23 07:44:39;;;;;;;30.42;12.40;;;8.40;71.30;;;;;;5046876;28;20065;-81
2021/03/23 07:47:14;;;;;;;28.83;11.52;;;8.40;70.90;;;;;;5046767;28;20049;-81
2021/03/23 07:49:51;;;;;;;30.42;12.32;;;8.40;71.30;;;;;;5044792;28;20056;-81
2021/03/23 07:52:32;;;;;;;29.42;11.77;;;8.40;71.00;;;;;;5050993;28;20453;-81
2021/03/23 07:55:00;;;;;;;27.30;11.02;;;8.30;71.30;;;;;;5048546;28;20060;-83
2021/03/23 07:57:43;;;;;;;27.80;12.27;;;8.50;70.40;;;;;;5044599;28;20053;-81
2021/03/23 08:00:24;;;;;;;31.20;11.82;;;8.50;70.20;;;;;;5047213;28;20478;-81
2021/03/23 08:03:10;;;;;;;25.80;11.43;;;8.50;70.40;;;;;;5045821;28;20102;-82
2021/03/23 08:05:52;;;;;;;29.52;11.95;;;8.70;69.60;;;;;;5047786;28;20053;-81
2021/03/23 08:08:46;;;;;;;32.40;11.35;;;8.60;69.40;;;;;;5046327;28;20052;-82
2021/03/23 08:11:37;;;;;;;32.33;12.80;;;8.60;70.00;;;;;;5047610;28;20513;-82
2021/03/23 08:14:06;;;;;;;26.23;11.45;;;8.70;69.60;;;;;;5049395;28;20376;-82
2021/03/23 08:16:36;;;;;;;28.90;12.23;;;8.80;69.10;;;;;;5050169;28;20586;-81
2021/03/23 08:19:27;;;;;;;30.10;12.25;;;8.80;69.20;;;;;;5050348;28;20114;-82
2021/03/23 08:22:16;;;;;;;37.17;11.75;;;8.70;68.50;;;;;;5051709;28;20112;-82
2021/03/23 08:24:42;;;;;;;33.20;12.00;;;8.80;69.20;;;;;;5051118;28;20056;-82
2021/03/23 08:27:18;;;;;;;31.30;12.27;;;8.70;69.60;;;;;;5051802;28;20060;-82
2021/03/23 08:29:58;;;;;;;32.95;12.40;;;8.70;70.00;;;;;;5049973;28;20048;-82
2021/03/23 08:32:54;;;;;;;29.55;13.25;;;8.80;66.80;;;;;;5062979;28;20193;-83
2021/03/23 08:35:38;;;;;;;31.15;13.00;;;8.90;66.70;;;;;;5050518;28;20063;-82
2021/03/23 08:38:08;;;;;;;34.80;14.18;;;8.90;65.70;;;;;;5049875;28;20053;-82
2021/03/23 08:41:10;;;;;;;31.65;14.00;;;8.70;65.70;;;;;;5049932;28;20057;-83
2021/03/23 08:43:40;;;;;;;35.05;13.55;;;8.80;66.20;;;;;;5040325;28;20558;-83
2021/03/23 08:46:20;;;;;;;39.67;13.73;;;9.00;64.80;;;;;;5052237;28;20049;-84
2021/03/23 08:48:51;;;;;;;34.00;13.73;;;9.10;64.20;;;;;;5051758;28;20113;-83
2021/03/23 08:51:23;;;;;;;31.25;14.10;;;9.10;64.90;;;;;;5049987;28;20058;-84
2021/03/23 08:53:55;;;;;;;37.65;14.70;;;9.20;64.40;;;;;;5053096;28;20053;-83
2021/03/23 08:56:40;;;;;;;32.95;13.20;;;9.30;63.70;;;;;;5050379;28;20416;-84
2021/03/23 08:59:35;;;;;;;29.38;13.68;;;9.40;63.40;;;;;;5050918;28;20061;-84
2021/03/23 09:02:28;;;;;;;26.83;13.07;;;9.50;62.80;;;;;;5053461;28;20053;-84
2021/03/23 09:04:56;;;;;;;34.45;15.38;;;9.50;62.50;;;;;;5064651;28;20049;-78
2021/03/23 09:07:32;;;;;;;29.42;14.40;;;9.50;62.20;;;;;;5051094;28;20053;-77
2021/03/23 09:09:59;;;;;;;34.33;15.18;;;9.50;63.10;;;;;;5049976;28;20558;-77
2021/03/23 09:12:41;;;;;;;29.40;14.40;;;9.70;62.30;;;;;;5050428;28;20186;-77
2021/03/23 09:15:17;;;;;;;36.67;14.70;;;9.60;61.90;;;;;;5048955;28;20052;-77
2021/03/23 09:18:01;;;;;;;32.75;15.77;;;9.60;61.50;;;;;;5049224;28;20056;-83
2021/03/23 09:20:31;;;;;;;31.27;15.10;;;9.70;61.40;;;;;;5050258;28;20155;-82
2021/03/23 09:23:16;;;;;;;33.03;15.70;;;9.60;61.60;;;;;;5046927;28;20049;-80
2021/03/23 09:25:54;;;;;;;37.30;15.57;;;9.60;61.00;;;;;;5049812;28;20360;-81
2021/03/23 09:28:33;;;;;;;33.58;14.68;;;9.60;61.30;;;;;;5050960;28;20049;-81
2021/03/23 09:31:08;;;;;;;29.77;14.00;;;9.70;61.40;;;;;;5047510;28;20148;-80
2021/03/23 09:33:50;;;;;;;32.85;14.13;;;9.90;61.20;;;;;;5048413;28;20045;-81
2021/03/23 09:36:19;;;;;;;30.33;14.85;;;10.10;59.60;;;;;;5048520;28;20048;-81
2021/03/23 09:38:48;;;;;;;33.10;15.25;;;10.00;59.30;;;;;;5049575;28;20052;-80
2021/03/23 09:41:37;;;;;;;36.33;15.32;;;10.00;59.30;;;;;;5048672;28;20057;-78
2021/03/23 09:44:08;;;;;;;36.53;15.73;;;10.30;59.40;;;;;;5047427;28;20813;-77
2021/03/23 09:46:37;;;;;;;32.15;14.95;;;10.40;59.10;;;;;;5046511;28;20114;-78
2021/03/23 09:49:21;;;;;;;37.13;16.02;;;10.70;58.20;;;;;;5041348;28;20055;-76
2021/03/23 09:51:49;;;;;;;36.63;15.65;;;10.60;58.00;;;;;;5049047;28;20055;-77
2021/03/23 09:54:28;;;;;;;33.85;15.88;;;10.80;57.40;;;;;;5048108;28;20065;-74
2021/03/23 09:56:58;;;;;;;31.67;14.70;;;10.50;57.40;;;;;;5046694;28;20053;-79
2021/03/23 09:59:48;;;;;;;33.38;15.63;;;10.70;57.70;;;;;;5052147;28;20052;-82
2021/03/23 10:02:17;;;;;;;31.83;15.15;;;11.00;56.80;;;;;;5048467;28;20099;-83
2021/03/23 10:04:47;;;;;;;25.13;13.60;;;11.30;55.40;;;;;;5049666;28;20112;-83
2021/03/23 10:07:36;;;;;;;32.40;15.25;;;11.00;55.20;;;;;;5048828;28;20102;-83
2021/03/23 10:10:21;;;;;;;28.80;14.45;;;11.00;55.60;;;;;;5049348;28;20135;-82
2021/03/23 10:12:51;;;;;;;33.55;15.27;;;10.60;56.10;;;;;;5048888;28;20138;-83
2021/03/23 10:15:33;;;;;;;38.80;15.93;;;10.60;56.20;;;;;;5060482;28;20049;-82
2021/03/23 10:18:19;;;;;;;34.88;16.35;;;10.70;56.00;;;;;;5046839;28;20053;-82
2021/03/23 10:20:54;;;;;;;27.60;14.45;;;10.70;55.70;;;;;;5049353;28;20056;-81
2021/03/23 10:23:23;;;;;;;33.55;15.30;;;10.60;55.80;;;;;;5049668;28;20060;-82
2021/03/23 10:25:50;;;;;;;34.78;16.27;;;10.80;56.00;;;;;;5049964;28;20504;-81
2021/03/23 10:28:54;;;;;;;30.52;15.45;;;10.70;55.40;;;;;;5050735;28;20459;-82
2021/03/23 10:31:35;;;;;;;34.25;15.75;;;10.70;55.10;;;;;;5049011;28;20053;-81
2021/03/23 10:34:20;;;;;;;31.27;14.95;;;10.60;55.30;;;;;;5048573;28;20044;-81
2021/03/23 10:36:58;;;;;;;35.50;16.38;;;10.60;54.90;;;;;;5050374;28;20045;-85
2021/03/23 10:39:36;;;;;;;34.13;15.68;;;10.70;54.80;;;;;;5049190;28;20057;-86
2021/03/23 10:42:25;;;;;;;32.03;15.35;;;10.60;54.60;;;;;;5049160;28;20080;-87
2021/03/23 10:45:10;;;;;;;31.52;14.82;;;10.40;55.00;;;;;;5050548;28;20132;-84
2021/03/23 10:47:39;;;;;;;50.10;23.50;;;10.40;54.90;;;;;;5050838;28;20053;-85
2021/03/23 10:50:26;;;;;;;34.03;15.97;;;10.20;54.50;;;;;;5046756;28;20041;-84
2021/03/23 10:53:07;;;;;;;28.33;13.90;;;10.20;54.70;;;;;;5052915;28;20067;-85
2021/03/23 10:55:37;;;;;;;29.08;12.95;;;10.30;55.10;;;;;;5051855;28;20055;-84
2021/03/23 10:58:27;;;;;;;24.70;13.30;;;10.40;54.50;;;;;;5050914;28;20110;-85
2021/03/23 11:01:18;;;;;;;27.80;12.95;;;10.40;54.50;;;;;;5055428;28;20408;-87
2021/03/23 11:03:52;;;;;;;27.65;13.75;;;10.30;54.40;;;;;;5053300;28;20114;-87
2021/03/23 11:06:32;;;;;;;32.67;14.05;;;10.40;54.30;;;;;;5053199;28;20045;-86
2021/03/23 11:09:01;;;;;;;26.80;13.20;;;10.40;54.70;;;;;;5048336;28;20052;-80
2021/03/23 11:11:30;;;;;;;26.85;14.10;;;10.70;54.10;;;;;;5043611;28;20068;-79
2021/03/23 11:13:57;;;;;;;26.13;13.90;;;10.50;54.00;;;;;;5047866;28;20489;-80
2021/03/23 11:16:28;;;;;;;31.88;13.85;;;10.60;54.20;;;;;;5049123;28;20045;-80
2021/03/23 11:18:59;;;;;;;28.02;13.32;;;10.50;54.50;;;;;;5046297;28;20057;-79
2021/03/23 11:21:31;;;;;;;27.33;14.00;;;10.60;54.30;;;;;;5045405;28;20081;-80
2021/03/23 11:23:58;;;;;;;26.67;13.35;;;10.40;54.60;;;;;;5044674;28;20045;-79
2021/03/23 11:26:28;;;;;;;24.83;12.77;;;10.20;54.90;;;;;;5043473;28;20514;-79
2021/03/23 11:28:58;;;;;;;26.83;12.95;;;10.40;54.60;;;;;;5042583;28;20049;-80
2021/03/23 11:31:29;;;;;;;27.87;13.60;;;10.40;54.30;;;;;;5044052;28;20052;-79
2021/03/23 11:33:56;;;;;;;;;;;10.40;54.50;;;;;;5046371;28;20484;-79
2021/03/23 11:36:23;;;;;;;27.45;13.07;;;10.40;54.40;;;;;;5046138;28;19931;-80
2021/03/23 11:38:51;;;;;;;23.85;12.32;;;10.40;55.20;;;;;;5047288;28;20143;-81
2021/03/23 11:41:46;;;;;;;27.40;13.55;;;10.60;54.80;;;;;;5047598;28;20579;-79
2021/03/23 11:44:30;;;;;;;27.13;13.38;;;10.50;54.90;;;;;;5037675;28;20384;-81
2021/03/23 11:47:21;;;;;;;30.05;13.63;;;10.30;55.30;;;;;;5047276;28;20065;-83
2021/03/23 11:50:06;;;;;;;28.33;12.52;;;10.50;54.90;;;;;;5044658;28;20059;-79
2021/03/23 11:52:33;;;;;;;29.90;13.52;;;10.50;54.80;;;;;;5046882;28;20056;-82
2021/03/23 11:55:03;;;;;;;26.73;12.90;;;10.40;54.90;;;;;;5045461;28;20599;-82
2021/03/23 11:57:30;;;;;;;27.20;12.68;;;10.50;54.90;;;;;;5048985;28;20049;-80
2021/03/23 11:59:57;;;;;;;28.80;12.90;;;10.50;54.80;;;;;;5045091;28;20048;-81
2021/03/23 12:02:24;;;;;;;27.75;13.15;;;10.50;55.20;;;;;;5046928;28;20044;-80
2021/03/23 12:04:51;;;;;;;24.77;12.98;;;10.50;54.60;;;;;;5045446;28;20105;-84
2021/03/23 12:07:37;;;;;;;24.52;13.02;;;10.50;54.80;;;;;;5046272;28;21392;-79
2021/03/23 12:10:09;;;;;;;32.65;13.70;;;10.30;54.90;;;;;;5046601;28;20056;-79
2021/03/23 12:12:50;;;;;;;26.02;12.73;;;10.30;55.00;;;;;;5048204;28;20487;-81
2021/03/23 12:15:24;;;;;;;28.10;12.93;;;10.30;55.00;;;;;;5044510;28;20045;-78
2021/03/23 12:17:55;;;;;;;29.73;13.85;;;10.10;55.40;;;;;;5047414;28;20120;-79
2021/03/23 12:20:30;;;;;;;27.55;13.27;;;10.20;55.40;;;;;;5044168;28;20049;-79
2021/03/23 12:22:56;;;;;;;29.88;13.30;;;10.20;55.40;;;;;;5048912;28;20052;-79
2021/03/23 12:25:24;;;;;;;30.00;13.88;;;10.30;55.10;;;;;;5046384;28;20446;-79
2021/03/23 12:27:51;;;;;;;27.15;13.52;;;10.30;54.90;;;;;;5038853;28;20098;-78
2021/03/23 12:30:20;;;;;;;24.05;12.38;;;10.40;55.10;;;;;;5042681;28;20060;-78
2021/03/23 12:32:48;;;;;;;30.58;14.73;;;10.40;55.00;;;;;;5043378;28;20160;-79
2021/03/23 12:35:20;;;;;;;26.30;14.57;;;10.50;54.90;;;;;;5046418;28;20120;-79
2021/03/23 12:37:49;;;;;;;25.73;12.55;;;10.50;54.90;;;;;;5042901;28;20073;-79
2021/03/23 12:40:20;;;;;;;31.50;13.60;;;10.40;54.90;;;;;;5046051;28;20049;-79
2021/03/23 12:42:59;;;;;;;33.47;14.82;;;10.30;54.80;;;;;;5034811;28;20384;-77
2021/03/23 12:45:33;;;;;;;28.13;13.38;;;10.30;55.20;;;;;;5041440;28;20064;-75
2021/03/23 12:48:00;;;;;;;28.23;11.95;;;10.30;55.10;;;;;;5038067;28;20041;-76
2021/03/23 12:50:27;;;;;;;23.80;12.38;;;10.50;54.90;;;;;;5044723;28;20076;-76
2021/03/23 12:52:57;;;;;;;25.20;12.30;;;10.70;54.80;;;;;;5042341;28;20526;-79
2021/03/23 12:55:30;;;;;;;27.98;13.48;;;10.70;54.60;;;;;;5047477;28;20067;-78
2021/03/23 12:58:00;;;;;;;29.42;13.07;;;10.70;54.70;;;;;;5054425;28;20485;-78
2021/03/23 13:00:34;;;;;;;29.07;13.57;;;10.70;54.50;;;;;;5041403;28;20049;-78
2021/03/23 13:03:01;;;;;;;31.60;13.88;;;10.80;54.60;;;;;;5045329;28;20303;-77
2021/03/23 13:05:30;;;;;;;31.92;14.35;;;10.70;54.30;;;;;;5044349;28;20045;-77